sensor_id;sensor_type;location;lat;lon;timestamp;P1;durP1;ratioP1;P2;durP2;ratioP2
53801;SDS011;39709;53.334;6.534;2022-10-22T00:00:10;11.10;;;5.70;;
53801;SDS011;39709;53.334;6.534;2022-10-22T00:02:38;13.65;;;5.95;;
53801;SDS011;39709;53.334;6.534;2022-10-22T00:05:04;11.25;;;5.85;;
53801;SDS011;39709;53.334;6.534;2022-10-22T00:07:30;11.20;;;4.97;;
53801;SDS011;39709;53.334;6.534;2022-10-22T00:09:56;9.83;;;4.83;;
53801;SDS011;39709;53.334;6.534;2022-10-22T00:12:22;11.60;;;5.80;;
53801;SDS011;39709;53.334;6.534;2022-10-22T00:14:48;10.80;;;5.53;;
53801;SDS011;39709;53.334;6.534;2022-10-22T00:17:13;10.27;;;5.13;;
53801;SDS011;39709;53.334;6.534;2022-10-22T00:19:39;12.07;;;5.88;;
53801;SDS011;39709;53.334;6.534;2022-10-22T00:22:05;11.60;;;5.43;;
53801;SDS011;39709;53.334;6.534;2022-10-22T00:24:33;11.48;;;5.53;;
53801;SDS011;39709;53.334;6.534;2022-10-22T00:26:59;10.32;;;5.53;;
53801;SDS011;39709;53.334;6.534;2022-10-22T00:29:25;11.43;;;5.80;;
53801;SDS011;39709;53.334;6.534;2022-10-22T00:31:51;12.33;;;5.30;;
53801;SDS011;39709;53.334;6.534;2022-10-22T00:34:17;11.45;;;5.10;;
53801;SDS011;39709;53.334;6.534;2022-10-22T00:36:45;11.13;;;4.70;;
53801;SDS011;39709;53.334;6.534;2022-10-22T00:39:11;11.18;;;5.70;;
53801;SDS011;39709;53.334;6.534;2022-10-22T00:41:40;13.35;;;6.03;;
53801;SDS011;39709;53.334;6.534;2022-10-22T00:44:56;11.35;;;5.35;;
53801;SDS011;39709;53.334;6.534;2022-10-22T00:47:11;11.45;;;5.65;;
53801;SDS011;39709;53.334;6.534;2022-10-22T00:49:38;9.63;;;4.47;;
53801;SDS011;39709;53.334;6.534;2022-10-22T00:52:04;11.35;;;5.03;;
53801;SDS011;39709;53.334;6.534;2022-10-22T00:54:30;9.82;;;5.45;;
53801;SDS011;39709;53.334;6.534;2022-10-22T00:56:56;11.40;;;5.53;;
53801;SDS011;39709;53.334;6.534;2022-10-22T00:59:22;11.07;;;4.83;;
53801;SDS011;39709;53.334;6.534;2022-10-22T01:01:48;10.50;;;4.85;;
53801;SDS011;39709;53.334;6.534;2022-10-22T01:04:14;10.65;;;5.88;;
53801;SDS011;39709;53.334;6.534;2022-10-22T01:06:40;9.73;;;4.17;;
53801;SDS011;39709;53.334;6.534;2022-10-22T01:14:16;10.13;;;5.03;;
53801;SDS011;39709;53.334;6.534;2022-10-22T01:22:21;10.13;;;5.03;;
53801;SDS011;39709;53.334;6.534;2022-10-22T01:30:31;9.70;;;4.88;;
53801;SDS011;39709;53.334;6.534;2022-10-22T01:32:59;11.70;;;4.80;;
53801;SDS011;39709;53.334;6.534;2022-10-22T01:35:30;12.20;;;6.20;;
53801;SDS011;39709;53.334;6.534;2022-10-22T01:38:00;10.52;;;5.38;;
53801;SDS011;39709;53.334;6.534;2022-10-22T01:40:29;14.93;;;6.20;;
53801;SDS011;39709;53.334;6.534;2022-10-22T01:43:01;9.00;;;4.33;;
53801;SDS011;39709;53.334;6.534;2022-10-22T01:45:29;11.75;;;4.85;;
53801;SDS011;39709;53.334;6.534;2022-10-22T01:58:47;12.18;;;5.60;;
53801;SDS011;39709;53.334;6.534;2022-10-22T02:01:45;9.50;;;4.80;;
53801;SDS011;39709;53.334;6.534;2022-10-22T02:04:20;9.32;;;4.38;;
53801;SDS011;39709;53.334;6.534;2022-10-22T02:06:52;11.52;;;5.30;;
53801;SDS011;39709;53.334;6.534;2022-10-22T02:09:20;11.73;;;4.97;;
53801;SDS011;39709;53.334;6.534;2022-10-22T02:11:48;11.45;;;5.68;;
53801;SDS011;39709;53.334;6.534;2022-10-22T02:14:15;11.18;;;5.63;;
53801;SDS011;39709;53.334;6.534;2022-10-22T02:16:44;11.25;;;5.47;;
53801;SDS011;39709;53.334;6.534;2022-10-22T02:19:18;12.05;;;5.53;;
53801;SDS011;39709;53.334;6.534;2022-10-22T02:21:49;15.07;;;5.77;;
53801;SDS011;39709;53.334;6.534;2022-10-22T02:24:16;10.70;;;5.82;;
53801;SDS011;39709;53.334;6.534;2022-10-22T02:29:40;12.38;;;5.13;;
53801;SDS011;39709;53.334;6.534;2022-10-22T02:32:15;9.00;;;3.97;;
53801;SDS011;39709;53.334;6.534;2022-10-22T02:34:45;7.57;;;2.87;;
53801;SDS011;39709;53.334;6.534;2022-10-22T02:37:12;9.85;;;4.70;;
53801;SDS011;39709;53.334;6.534;2022-10-22T02:39:39;11.55;;;4.13;;
53801;SDS011;39709;53.334;6.534;2022-10-22T02:42:05;9.85;;;4.93;;
53801;SDS011;39709;53.334;6.534;2022-10-22T02:44:33;10.03;;;5.03;;
53801;SDS011;39709;53.334;6.534;2022-10-22T02:46:58;13.55;;;4.35;;
53801;SDS011;39709;53.334;6.534;2022-10-22T02:49:24;10.57;;;4.90;;
53801;SDS011;39709;53.334;6.534;2022-10-22T02:51:50;11.07;;;5.30;;
53801;SDS011;39709;53.334;6.534;2022-10-22T02:54:16;11.50;;;4.70;;
53801;SDS011;39709;53.334;6.534;2022-10-22T02:56:42;10.37;;;4.43;;
53801;SDS011;39709;53.334;6.534;2022-10-22T02:59:07;9.57;;;4.82;;
53801;SDS011;39709;53.334;6.534;2022-10-22T03:01:33;9.40;;;4.07;;
53801;SDS011;39709;53.334;6.534;2022-10-22T03:03:59;10.23;;;4.57;;
53801;SDS011;39709;53.334;6.534;2022-10-22T03:06:24;9.73;;;4.30;;
53801;SDS011;39709;53.334;6.534;2022-10-22T03:08:50;9.57;;;4.38;;
53801;SDS011;39709;53.334;6.534;2022-10-22T03:11:16;9.93;;;4.57;;
53801;SDS011;39709;53.334;6.534;2022-10-22T03:13:41;10.43;;;3.42;;
53801;SDS011;39709;53.334;6.534;2022-10-22T03:16:07;10.87;;;4.40;;
53801;SDS011;39709;53.334;6.534;2022-10-22T03:18:33;14.15;;;5.30;;
53801;SDS011;39709;53.334;6.534;2022-10-22T03:21:07;12.47;;;4.53;;
53801;SDS011;39709;53.334;6.534;2022-10-22T03:23:37;11.88;;;5.35;;
53801;SDS011;39709;53.334;6.534;2022-10-22T03:26:04;11.68;;;4.90;;
53801;SDS011;39709;53.334;6.534;2022-10-22T03:28:31;9.70;;;4.30;;
53801;SDS011;39709;53.334;6.534;2022-10-22T03:30:58;12.27;;;5.00;;
53801;SDS011;39709;53.334;6.534;2022-10-22T03:33:24;12.40;;;5.55;;
53801;SDS011;39709;53.334;6.534;2022-10-22T03:35:50;10.13;;;4.87;;
53801;SDS011;39709;53.334;6.534;2022-10-22T03:38:15;15.13;;;4.45;;
53801;SDS011;39709;53.334;6.534;2022-10-22T03:40:41;12.80;;;4.37;;
53801;SDS011;39709;53.334;6.534;2022-10-22T03:43:09;11.02;;;3.47;;
53801;SDS011;39709;53.334;6.534;2022-10-22T03:45:35;10.75;;;4.47;;
53801;SDS011;39709;53.334;6.534;2022-10-22T03:48:01;11.63;;;4.83;;
53801;SDS011;39709;53.334;6.534;2022-10-22T03:50:26;10.65;;;4.47;;
53801;SDS011;39709;53.334;6.534;2022-10-22T03:52:52;10.97;;;4.87;;
53801;SDS011;39709;53.334;6.534;2022-10-22T03:55:18;13.05;;;5.40;;
53801;SDS011;39709;53.334;6.534;2022-10-22T03:57:44;14.52;;;4.72;;
53801;SDS011;39709;53.334;6.534;2022-10-22T04:00:10;11.00;;;4.40;;
53801;SDS011;39709;53.334;6.534;2022-10-22T04:02:35;12.90;;;4.70;;
53801;SDS011;39709;53.334;6.534;2022-10-22T04:05:01;10.67;;;4.47;;
53801;SDS011;39709;53.334;6.534;2022-10-22T04:07:27;13.90;;;4.70;;
53801;SDS011;39709;53.334;6.534;2022-10-22T04:09:53;7.77;;;3.70;;
53801;SDS011;39709;53.334;6.534;2022-10-22T04:12:18;9.43;;;4.28;;
53801;SDS011;39709;53.334;6.534;2022-10-22T04:14:44;8.43;;;3.20;;
53801;SDS011;39709;53.334;6.534;2022-10-22T04:17:10;10.52;;;4.93;;
53801;SDS011;39709;53.334;6.534;2022-10-22T04:19:35;9.73;;;4.27;;
53801;SDS011;39709;53.334;6.534;2022-10-22T04:22:01;12.05;;;4.53;;
53801;SDS011;39709;53.334;6.534;2022-10-22T04:24:28;9.00;;;3.90;;
53801;SDS011;39709;53.334;6.534;2022-10-22T04:26:55;14.75;;;5.50;;
53801;SDS011;39709;53.334;6.534;2022-10-22T04:29:21;10.30;;;4.43;;
53801;SDS011;39709;53.334;6.534;2022-10-22T04:31:47;13.40;;;4.67;;
53801;SDS011;39709;53.334;6.534;2022-10-22T04:34:13;8.25;;;3.58;;
53801;SDS011;39709;53.334;6.534;2022-10-22T04:36:38;13.07;;;4.47;;
53801;SDS011;39709;53.334;6.534;2022-10-22T04:39:04;10.45;;;4.70;;
53801;SDS011;39709;53.334;6.534;2022-10-22T04:41:31;7.30;;;2.83;;
53801;SDS011;39709;53.334;6.534;2022-10-22T04:43:59;10.23;;;3.63;;
53801;SDS011;39709;53.334;6.534;2022-10-22T04:46:26;11.07;;;4.32;;
53801;SDS011;39709;53.334;6.534;2022-10-22T04:48:54;12.90;;;4.50;;
53801;SDS011;39709;53.334;6.534;2022-10-22T04:51:20;10.60;;;4.50;;
53801;SDS011;39709;53.334;6.534;2022-10-22T04:53:48;11.20;;;4.83;;
53801;SDS011;39709;53.334;6.534;2022-10-22T04:56:17;10.07;;;4.60;;
53801;SDS011;39709;53.334;6.534;2022-10-22T04:58:48;12.70;;;4.60;;
53801;SDS011;39709;53.334;6.534;2022-10-22T05:01:35;9.50;;;4.00;;
53801;SDS011;39709;53.334;6.534;2022-10-22T05:04:03;10.90;;;3.63;;
53801;SDS011;39709;53.334;6.534;2022-10-22T05:06:30;8.82;;;2.97;;
53801;SDS011;39709;53.334;6.534;2022-10-22T05:08:58;10.95;;;3.80;;
53801;SDS011;39709;53.334;6.534;2022-10-22T05:11:27;8.90;;;3.38;;
53801;SDS011;39709;53.334;6.534;2022-10-22T05:13:56;10.32;;;3.90;;
53801;SDS011;39709;53.334;6.534;2022-10-22T05:16:22;8.83;;;4.20;;
53801;SDS011;39709;53.334;6.534;2022-10-22T05:18:48;10.60;;;4.32;;
53801;SDS011;39709;53.334;6.534;2022-10-22T05:21:15;7.65;;;3.30;;
53801;SDS011;39709;53.334;6.534;2022-10-22T05:23:43;11.00;;;4.93;;
53801;SDS011;39709;53.334;6.534;2022-10-22T05:26:10;11.07;;;4.50;;
53801;SDS011;39709;53.334;6.534;2022-10-22T05:28:36;9.50;;;3.67;;
53801;SDS011;39709;53.334;6.534;2022-10-22T05:31:03;10.57;;;3.95;;
53801;SDS011;39709;53.334;6.534;2022-10-22T05:33:29;9.52;;;3.67;;
53801;SDS011;39709;53.334;6.534;2022-10-22T05:35:56;9.73;;;5.03;;
53801;SDS011;39709;53.334;6.534;2022-10-22T05:38:22;10.50;;;5.40;;
53801;SDS011;39709;53.334;6.534;2022-10-22T05:40:57;11.10;;;5.18;;
53801;SDS011;39709;53.334;6.534;2022-10-22T05:43:24;9.27;;;4.13;;
53801;SDS011;39709;53.334;6.534;2022-10-22T05:45:50;12.07;;;4.47;;
53801;SDS011;39709;53.334;6.534;2022-10-22T05:48:16;12.60;;;5.07;;
53801;SDS011;39709;53.334;6.534;2022-10-22T05:50:41;10.50;;;5.73;;
53801;SDS011;39709;53.334;6.534;2022-10-22T05:53:10;6.85;;;2.83;;
53801;SDS011;39709;53.334;6.534;2022-10-22T05:55:36;13.57;;;4.15;;
53801;SDS011;39709;53.334;6.534;2022-10-22T05:58:04;13.43;;;4.95;;
53801;SDS011;39709;53.334;6.534;2022-10-22T06:00:30;10.60;;;5.53;;
53801;SDS011;39709;53.334;6.534;2022-10-22T06:02:56;9.65;;;4.60;;
53801;SDS011;39709;53.334;6.534;2022-10-22T06:05:21;9.67;;;4.23;;
53801;SDS011;39709;53.334;6.534;2022-10-22T06:07:47;10.05;;;3.25;;
53801;SDS011;39709;53.334;6.534;2022-10-22T06:10:13;7.57;;;2.83;;
53801;SDS011;39709;53.334;6.534;2022-10-22T06:12:41;11.10;;;3.53;;
53801;SDS011;39709;53.334;6.534;2022-10-22T06:15:08;11.27;;;3.50;;
53801;SDS011;39709;53.334;6.534;2022-10-22T06:17:35;9.20;;;3.57;;
53801;SDS011;39709;53.334;6.534;2022-10-22T06:20:02;12.70;;;5.28;;
53801;SDS011;39709;53.334;6.534;2022-10-22T06:22:28;14.48;;;5.53;;
53801;SDS011;39709;53.334;6.534;2022-10-22T06:24:53;13.60;;;5.23;;
53801;SDS011;39709;53.334;6.534;2022-10-22T06:27:19;9.95;;;4.00;;
53801;SDS011;39709;53.334;6.534;2022-10-22T06:29:45;7.50;;;2.50;;
53801;SDS011;39709;53.334;6.534;2022-10-22T06:32:12;5.78;;;1.85;;
53801;SDS011;39709;53.334;6.534;2022-10-22T06:34:38;13.90;;;5.00;;
53801;SDS011;39709;53.334;6.534;2022-10-22T06:37:04;8.30;;;2.03;;
53801;SDS011;39709;53.334;6.534;2022-10-22T06:39:29;8.52;;;3.85;;
53801;SDS011;39709;53.334;6.534;2022-10-22T06:41:55;14.87;;;5.00;;
53801;SDS011;39709;53.334;6.534;2022-10-22T06:44:21;10.88;;;3.60;;
53801;SDS011;39709;53.334;6.534;2022-10-22T06:46:50;14.23;;;4.57;;
53801;SDS011;39709;53.334;6.534;2022-10-22T06:49:17;10.38;;;5.22;;
53801;SDS011;39709;53.334;6.534;2022-10-22T06:51:44;11.02;;;4.38;;
53801;SDS011;39709;53.334;6.534;2022-10-22T06:54:10;9.63;;;4.05;;
53801;SDS011;39709;53.334;6.534;2022-10-22T06:56:36;11.57;;;3.97;;
53801;SDS011;39709;53.334;6.534;2022-10-22T06:59:02;5.32;;;1.88;;
53801;SDS011;39709;53.334;6.534;2022-10-22T07:01:31;9.80;;;2.70;;
53801;SDS011;39709;53.334;6.534;2022-10-22T07:03:58;11.53;;;4.97;;
53801;SDS011;39709;53.334;6.534;2022-10-22T07:06:25;8.30;;;4.00;;
53801;SDS011;39709;53.334;6.534;2022-10-22T07:08:52;10.63;;;3.78;;
53801;SDS011;39709;53.334;6.534;2022-10-22T07:11:20;8.98;;;3.22;;
53801;SDS011;39709;53.334;6.534;2022-10-22T07:13:47;6.05;;;1.55;;
53801;SDS011;39709;53.334;6.534;2022-10-22T07:16:14;5.63;;;1.80;;
53801;SDS011;39709;53.334;6.534;2022-10-22T07:18:41;8.73;;;3.92;;
53801;SDS011;39709;53.334;6.534;2022-10-22T07:21:07;5.60;;;1.75;;
53801;SDS011;39709;53.334;6.534;2022-10-22T07:23:34;5.15;;;1.70;;
53801;SDS011;39709;53.334;6.534;2022-10-22T07:26:00;6.60;;;2.77;;
53801;SDS011;39709;53.334;6.534;2022-10-22T07:28:30;7.30;;;2.70;;
53801;SDS011;39709;53.334;6.534;2022-10-22T07:30:57;6.15;;;1.58;;
53801;SDS011;39709;53.334;6.534;2022-10-22T07:33:23;8.57;;;2.47;;
53801;SDS011;39709;53.334;6.534;2022-10-22T07:35:49;4.87;;;1.37;;
53801;SDS011;39709;53.334;6.534;2022-10-22T07:38:15;6.10;;;2.35;;
53801;SDS011;39709;53.334;6.534;2022-10-22T07:40:41;9.53;;;3.33;;
53801;SDS011;39709;53.334;6.534;2022-10-22T07:43:06;7.10;;;3.65;;
53801;SDS011;39709;53.334;6.534;2022-10-22T07:45:32;8.80;;;3.90;;
53801;SDS011;39709;53.334;6.534;2022-10-22T07:47:58;9.25;;;3.67;;
53801;SDS011;39709;53.334;6.534;2022-10-22T07:50:24;8.57;;;2.70;;
53801;SDS011;39709;53.334;6.534;2022-10-22T07:52:50;8.93;;;3.40;;
53801;SDS011;39709;53.334;6.534;2022-10-22T07:55:16;7.53;;;3.50;;
53801;SDS011;39709;53.334;6.534;2022-10-22T07:57:42;8.07;;;2.40;;
53801;SDS011;39709;53.334;6.534;2022-10-22T08:00:08;10.18;;;3.13;;
53801;SDS011;39709;53.334;6.534;2022-10-22T08:02:34;7.10;;;2.73;;
53801;SDS011;39709;53.334;6.534;2022-10-22T08:05:00;7.03;;;2.65;;
53801;SDS011;39709;53.334;6.534;2022-10-22T08:07:25;5.47;;;1.75;;
53801;SDS011;39709;53.334;6.534;2022-10-22T08:09:51;5.77;;;2.20;;
53801;SDS011;39709;53.334;6.534;2022-10-22T08:12:17;6.10;;;1.80;;
53801;SDS011;39709;53.334;6.534;2022-10-22T08:14:43;6.63;;;1.97;;
53801;SDS011;39709;53.334;6.534;2022-10-22T08:17:08;8.00;;;2.33;;
53801;SDS011;39709;53.334;6.534;2022-10-22T08:19:34;5.57;;;1.83;;
53801;SDS011;39709;53.334;6.534;2022-10-22T08:22:00;7.85;;;2.15;;
53801;SDS011;39709;53.334;6.534;2022-10-22T08:24:26;8.73;;;2.43;;
53801;SDS011;39709;53.334;6.534;2022-10-22T08:26:53;9.15;;;2.28;;
53801;SDS011;39709;53.334;6.534;2022-10-22T08:29:20;15.63;;;6.15;;
53801;SDS011;39709;53.334;6.534;2022-10-22T08:31:47;12.27;;;4.55;;
53801;SDS011;39709;53.334;6.534;2022-10-22T08:34:14;14.15;;;6.15;;
53801;SDS011;39709;53.334;6.534;2022-10-22T08:36:41;8.67;;;4.23;;
53801;SDS011;39709;53.334;6.534;2022-10-22T08:39:07;11.73;;;4.53;;
53801;SDS011;39709;53.334;6.534;2022-10-22T08:41:46;8.48;;;4.60;;
53801;SDS011;39709;53.334;6.534;2022-10-22T08:47:26;9.77;;;3.20;;
53801;SDS011;39709;53.334;6.534;2022-10-22T08:50:04;10.90;;;4.03;;
53801;SDS011;39709;53.334;6.534;2022-10-22T08:52:33;9.25;;;3.00;;
53801;SDS011;39709;53.334;6.534;2022-10-22T08:55:00;9.50;;;2.45;;
53801;SDS011;39709;53.334;6.534;2022-10-22T09:05:46;14.73;;;4.13;;
53801;SDS011;39709;53.334;6.534;2022-10-22T09:08:22;10.75;;;3.75;;
53801;SDS011;39709;53.334;6.534;2022-10-22T09:10:49;10.07;;;3.50;;
53801;SDS011;39709;53.334;6.534;2022-10-22T09:13:19;7.78;;;3.10;;
53801;SDS011;39709;53.334;6.534;2022-10-22T09:15:51;7.25;;;2.15;;
53801;SDS011;39709;53.334;6.534;2022-10-22T09:21:26;7.53;;;2.15;;
53801;SDS011;39709;53.334;6.534;2022-10-22T09:24:05;11.23;;;2.80;;
53801;SDS011;39709;53.334;6.534;2022-10-22T09:26:57;9.00;;;3.22;;
53801;SDS011;39709;53.334;6.534;2022-10-22T09:29:27;8.13;;;2.50;;
53801;SDS011;39709;53.334;6.534;2022-10-22T09:31:57;8.48;;;2.55;;
53801;SDS011;39709;53.334;6.534;2022-10-22T09:34:23;8.13;;;2.10;;
53801;SDS011;39709;53.334;6.534;2022-10-22T09:36:59;8.18;;;1.92;;
53801;SDS011;39709;53.334;6.534;2022-10-22T09:39:31;9.82;;;3.15;;
53801;SDS011;39709;53.334;6.534;2022-10-22T09:41:59;7.73;;;2.13;;
53801;SDS011;39709;53.334;6.534;2022-10-22T09:44:25;10.60;;;2.65;;
53801;SDS011;39709;53.334;6.534;2022-10-22T09:46:51;5.93;;;1.33;;
53801;SDS011;39709;53.334;6.534;2022-10-22T09:49:19;10.13;;;2.60;;
53801;SDS011;39709;53.334;6.534;2022-10-22T09:57:05;9.48;;;2.08;;
53801;SDS011;39709;53.334;6.534;2022-10-22T09:59:37;9.70;;;2.60;;
53801;SDS011;39709;53.334;6.534;2022-10-22T10:02:14;8.48;;;2.20;;
53801;SDS011;39709;53.334;6.534;2022-10-22T10:04:51;8.25;;;2.25;;
53801;SDS011;39709;53.334;6.534;2022-10-22T10:07:19;9.48;;;2.40;;
53801;SDS011;39709;53.334;6.534;2022-10-22T10:09:55;9.70;;;2.60;;
53801;SDS011;39709;53.334;6.534;2022-10-22T10:12:24;7.23;;;1.90;;
53801;SDS011;39709;53.334;6.534;2022-10-22T10:15:27;6.80;;;2.35;;
53801;SDS011;39709;53.334;6.534;2022-10-22T10:20:44;7.07;;;2.50;;
53801;SDS011;39709;53.334;6.534;2022-10-22T10:23:32;7.47;;;2.22;;
53801;SDS011;39709;53.334;6.534;2022-10-22T10:26:02;7.93;;;2.20;;
53801;SDS011;39709;53.334;6.534;2022-10-22T10:31:32;7.13;;;2.67;;
53801;SDS011;39709;53.334;6.534;2022-10-22T10:36:51;6.22;;;2.03;;
53801;SDS011;39709;53.334;6.534;2022-10-22T10:39:23;7.82;;;2.40;;
53801;SDS011;39709;53.334;6.534;2022-10-22T10:45:02;9.82;;;2.75;;
53801;SDS011;39709;53.334;6.534;2022-10-22T10:58:42;7.13;;;2.38;;
53801;SDS011;39709;53.334;6.534;2022-10-22T11:06:17;11.37;;;2.80;;
53801;SDS011;39709;53.334;6.534;2022-10-22T11:08:53;11.48;;;3.10;;
53801;SDS011;39709;53.334;6.534;2022-10-22T11:16:51;7.37;;;2.20;;
53801;SDS011;39709;53.334;6.534;2022-10-22T11:19:42;11.57;;;3.40;;
53801;SDS011;39709;53.334;6.534;2022-10-22T11:22:19;9.32;;;2.60;;
53801;SDS011;39709;53.334;6.534;2022-10-22T11:24:55;5.82;;;1.38;;
53801;SDS011;39709;53.334;6.534;2022-10-22T11:27:48;7.50;;;1.75;;
53801;SDS011;39709;53.334;6.534;2022-10-22T11:30:18;3.77;;;1.17;;
53801;SDS011;39709;53.334;6.534;2022-10-22T11:32:46;7.15;;;1.60;;
53801;SDS011;39709;53.334;6.534;2022-10-22T11:35:23;8.43;;;1.60;;
53801;SDS011;39709;53.334;6.534;2022-10-22T11:37:57;7.43;;;1.70;;
53801;SDS011;39709;53.334;6.534;2022-10-22T11:43:03;8.27;;;2.33;;
53801;SDS011;39709;53.334;6.534;2022-10-22T11:45:41;7.05;;;2.63;;
53801;SDS011;39709;53.334;6.534;2022-10-22T11:50:56;7.72;;;2.72;;
53801;SDS011;39709;53.334;6.534;2022-10-22T11:53:29;7.95;;;2.85;;
53801;SDS011;39709;53.334;6.534;2022-10-22T11:55:57;9.03;;;2.70;;
53801;SDS011;39709;53.334;6.534;2022-10-22T11:58:45;9.20;;;2.95;;
53801;SDS011;39709;53.334;6.534;2022-10-22T12:03:48;8.37;;;2.80;;
53801;SDS011;39709;53.334;6.534;2022-10-22T12:06:23;9.55;;;3.28;;
53801;SDS011;39709;53.334;6.534;2022-10-22T12:08:51;7.38;;;3.38;;
53801;SDS011;39709;53.334;6.534;2022-10-22T12:16:35;9.52;;;4.38;;
53801;SDS011;39709;53.334;6.534;2022-10-22T12:21:34;10.75;;;4.80;;
53801;SDS011;39709;53.334;6.534;2022-10-22T12:24:03;8.60;;;3.73;;
53801;SDS011;39709;53.334;6.534;2022-10-22T12:26:30;11.80;;;4.30;;
53801;SDS011;39709;53.334;6.534;2022-10-22T12:28:59;13.23;;;3.88;;
53801;SDS011;39709;53.334;6.534;2022-10-22T12:31:27;12.15;;;4.43;;
53801;SDS011;39709;53.334;6.534;2022-10-22T12:33:59;11.13;;;3.53;;
53801;SDS011;39709;53.334;6.534;2022-10-22T12:36:28;10.67;;;3.40;;
53801;SDS011;39709;53.334;6.534;2022-10-22T12:38:58;6.90;;;2.38;;
53801;SDS011;39709;53.334;6.534;2022-10-22T12:41:32;9.27;;;3.05;;
53801;SDS011;39709;53.334;6.534;2022-10-22T12:44:00;8.55;;;3.20;;
53801;SDS011;39709;53.334;6.534;2022-10-22T12:46:27;9.68;;;2.60;;
53801;SDS011;39709;53.334;6.534;2022-10-22T12:48:57;8.50;;;2.90;;
53801;SDS011;39709;53.334;6.534;2022-10-22T12:51:25;10.77;;;2.90;;
53801;SDS011;39709;53.334;6.534;2022-10-22T12:53:52;9.02;;;3.20;;
53801;SDS011;39709;53.334;6.534;2022-10-22T12:56:27;9.95;;;3.15;;
53801;SDS011;39709;53.334;6.534;2022-10-22T13:01:24;8.97;;;3.50;;
53801;SDS011;39709;53.334;6.534;2022-10-22T13:04:02;9.40;;;3.85;;
53801;SDS011;39709;53.334;6.534;2022-10-22T13:06:47;12.77;;;3.47;;
53801;SDS011;39709;53.334;6.534;2022-10-22T13:09:36;10.40;;;3.50;;
53801;SDS011;39709;53.334;6.534;2022-10-22T13:12:07;8.63;;;3.00;;
53801;SDS011;39709;53.334;6.534;2022-10-22T13:14:38;8.73;;;2.73;;
53801;SDS011;39709;53.334;6.534;2022-10-22T13:19:42;8.30;;;2.13;;
53801;SDS011;39709;53.334;6.534;2022-10-22T13:24:58;8.18;;;1.20;;
53801;SDS011;39709;53.334;6.534;2022-10-22T13:27:45;6.77;;;1.17;;
53801;SDS011;39709;53.334;6.534;2022-10-22T13:32:50;9.07;;;0.98;;
53801;SDS011;39709;53.334;6.534;2022-10-22T13:35:36;6.38;;;1.00;;
53801;SDS011;39709;53.334;6.534;2022-10-22T13:38:05;6.85;;;0.93;;
53801;SDS011;39709;53.334;6.534;2022-10-22T13:40:39;5.87;;;0.87;;
53801;SDS011;39709;53.334;6.534;2022-10-22T13:43:05;4.60;;;1.08;;
53801;SDS011;39709;53.334;6.534;2022-10-22T13:45:30;5.47;;;0.80;;
53801;SDS011;39709;53.334;6.534;2022-10-22T13:47:56;4.93;;;0.60;;
53801;SDS011;39709;53.334;6.534;2022-10-22T13:50:21;6.47;;;0.60;;
53801;SDS011;39709;53.334;6.534;2022-10-22T13:52:51;5.63;;;1.20;;
53801;SDS011;39709;53.334;6.534;2022-10-22T13:55:23;7.73;;;1.30;;
53801;SDS011;39709;53.334;6.534;2022-10-22T13:57:54;5.10;;;0.70;;
53801;SDS011;39709;53.334;6.534;2022-10-22T14:00:22;8.65;;;1.48;;
53801;SDS011;39709;53.334;6.534;2022-10-22T14:02:49;6.18;;;0.90;;
53801;SDS011;39709;53.334;6.534;2022-10-22T14:05:18;7.13;;;0.80;;
53801;SDS011;39709;53.334;6.534;2022-10-22T14:07:44;5.97;;;0.80;;
53801;SDS011;39709;53.334;6.534;2022-10-22T14:10:15;6.53;;;0.98;;
53801;SDS011;39709;53.334;6.534;2022-10-22T14:12:46;7.25;;;1.10;;
53801;SDS011;39709;53.334;6.534;2022-10-22T14:15:12;5.13;;;0.90;;
53801;SDS011;39709;53.334;6.534;2022-10-22T14:17:40;6.50;;;0.80;;
53801;SDS011;39709;53.334;6.534;2022-10-22T14:20:13;6.57;;;0.83;;
53801;SDS011;39709;53.334;6.534;2022-10-22T14:22:45;6.47;;;0.95;;
53801;SDS011;39709;53.334;6.534;2022-10-22T14:25:19;5.85;;;1.00;;
53801;SDS011;39709;53.334;6.534;2022-10-22T14:27:47;7.13;;;0.90;;
53801;SDS011;39709;53.334;6.534;2022-10-22T14:30:20;6.75;;;1.25;;
53801;SDS011;39709;53.334;6.534;2022-10-22T14:32:49;7.53;;;1.00;;
53801;SDS011;39709;53.334;6.534;2022-10-22T14:35:17;7.85;;;1.00;;
53801;SDS011;39709;53.334;6.534;2022-10-22T14:37:45;6.35;;;0.70;;
53801;SDS011;39709;53.334;6.534;2022-10-22T14:40:12;7.60;;;1.52;;
53801;SDS011;39709;53.334;6.534;2022-10-22T14:42:40;4.82;;;0.73;;
53801;SDS011;39709;53.334;6.534;2022-10-22T14:45:15;7.10;;;0.90;;
53801;SDS011;39709;53.334;6.534;2022-10-22T14:47:43;3.97;;;0.70;;
53801;SDS011;39709;53.334;6.534;2022-10-22T14:50:09;3.38;;;0.60;;
53801;SDS011;39709;53.334;6.534;2022-10-22T14:52:35;4.40;;;0.60;;
53801;SDS011;39709;53.334;6.534;2022-10-22T14:55:01;6.23;;;0.70;;
53801;SDS011;39709;53.334;6.534;2022-10-22T14:57:27;3.28;;;0.77;;
53801;SDS011;39709;53.334;6.534;2022-10-22T14:59:53;5.72;;;0.90;;
53801;SDS011;39709;53.334;6.534;2022-10-22T15:02:19;3.80;;;0.57;;
53801;SDS011;39709;53.334;6.534;2022-10-22T15:04:45;5.40;;;0.80;;
53801;SDS011;39709;53.334;6.534;2022-10-22T15:07:11;5.22;;;0.65;;
53801;SDS011;39709;53.334;6.534;2022-10-22T15:09:37;3.73;;;0.90;;
53801;SDS011;39709;53.334;6.534;2022-10-22T15:12:03;8.23;;;0.93;;
53801;SDS011;39709;53.334;6.534;2022-10-22T15:14:28;4.77;;;0.60;;
53801;SDS011;39709;53.334;6.534;2022-10-22T15:16:54;3.92;;;0.50;;
53801;SDS011;39709;53.334;6.534;2022-10-22T15:19:20;5.03;;;0.60;;
53801;SDS011;39709;53.334;6.534;2022-10-22T15:21:45;6.87;;;1.50;;
53801;SDS011;39709;53.334;6.534;2022-10-22T15:24:11;6.30;;;0.70;;
53801;SDS011;39709;53.334;6.534;2022-10-22T15:26:37;4.90;;;0.77;;
53801;SDS011;39709;53.334;6.534;2022-10-22T15:29:03;5.10;;;0.80;;
53801;SDS011;39709;53.334;6.534;2022-10-22T15:31:42;7.67;;;0.90;;
53801;SDS011;39709;53.334;6.534;2022-10-22T15:34:10;4.00;;;0.60;;
53801;SDS011;39709;53.334;6.534;2022-10-22T15:36:36;3.95;;;0.50;;
53801;SDS011;39709;53.334;6.534;2022-10-22T15:39:06;10.23;;;1.00;;
53801;SDS011;39709;53.334;6.534;2022-10-22T15:41:33;5.88;;;0.80;;
53801;SDS011;39709;53.334;6.534;2022-10-22T15:43:58;6.07;;;0.80;;
53801;SDS011;39709;53.334;6.534;2022-10-22T15:46:24;5.43;;;0.77;;
53801;SDS011;39709;53.334;6.534;2022-10-22T15:48:52;6.55;;;0.85;;
53801;SDS011;39709;53.334;6.534;2022-10-22T15:51:18;6.68;;;0.70;;
53801;SDS011;39709;53.334;6.534;2022-10-22T15:53:49;6.65;;;0.77;;
53801;SDS011;39709;53.334;6.534;2022-10-22T15:56:20;6.27;;;0.60;;
53801;SDS011;39709;53.334;6.534;2022-10-22T15:58:46;4.80;;;0.60;;
53801;SDS011;39709;53.334;6.534;2022-10-22T16:01:12;7.13;;;0.98;;
53801;SDS011;39709;53.334;6.534;2022-10-22T16:03:38;4.82;;;0.60;;
53801;SDS011;39709;53.334;6.534;2022-10-22T16:06:05;6.60;;;1.02;;
53801;SDS011;39709;53.334;6.534;2022-10-22T16:08:33;10.33;;;0.97;;
53801;SDS011;39709;53.334;6.534;2022-10-22T16:10:59;6.68;;;1.10;;
53801;SDS011;39709;53.334;6.534;2022-10-22T16:13:25;9.20;;;0.80;;
53801;SDS011;39709;53.334;6.534;2022-10-22T16:15:51;12.60;;;1.20;;
53801;SDS011;39709;53.334;6.534;2022-10-22T16:18:17;8.02;;;1.00;;
53801;SDS011;39709;53.334;6.534;2022-10-22T16:20:44;9.77;;;1.40;;
53801;SDS011;39709;53.334;6.534;2022-10-22T16:23:09;10.75;;;1.50;;
53801;SDS011;39709;53.334;6.534;2022-10-22T16:25:41;13.83;;;1.40;;
53801;SDS011;39709;53.334;6.534;2022-10-22T16:28:08;11.07;;;1.45;;
53801;SDS011;39709;53.334;6.534;2022-10-22T16:30:35;13.13;;;1.42;;
53801;SDS011;39709;53.334;6.534;2022-10-22T16:33:02;10.17;;;2.00;;
53801;SDS011;39709;53.334;6.534;2022-10-22T16:35:29;11.18;;;1.70;;
53801;SDS011;39709;53.334;6.534;2022-10-22T16:37:56;8.43;;;1.50;;
53801;SDS011;39709;53.334;6.534;2022-10-22T16:40:21;13.73;;;1.92;;